sensor_id;sensor_type;location;lat;lon;timestamp;temperature;humidity
15452;DHT22;7827;53.594;9.938;2023-06-14T00:00:06;15.80;99.90
15452;DHT22;7827;53.594;9.938;2023-06-14T00:02:36;15.90;1.00
15452;DHT22;7827;53.594;9.938;2023-06-14T00:05:06;15.90;99.90
15452;DHT22;7827;53.594;9.938;2023-06-14T00:07:37;16.00;1.00
15452;DHT22;7827;53.594;9.938;2023-06-14T00:10:10;16.00;99.90
15452;DHT22;7827;53.594;9.938;2023-06-14T00:12:40;16.10;99.90
15452;DHT22;7827;53.594;9.938;2023-06-14T00:15:08;16.00;1.00
15452;DHT22;7827;53.594;9.938;2023-06-14T00:17:37;16.00;1.00
15452;DHT22;7827;53.594;9.938;2023-06-14T00:20:09;15.90;1.00
15452;DHT22;7827;53.594;9.938;2023-06-14T00:22:38;15.80;99.90
15452;DHT22;7827;53.594;9.938;2023-06-14T00:25:07;15.80;99.90
15452;DHT22;7827;53.594;9.938;2023-06-14T00:27:54;15.80;1.00
15452;DHT22;7827;53.594;9.938;2023-06-14T00:30:24;15.90;8.90
15452;DHT22;7827;53.594;9.938;2023-06-14T00:32:57;15.80;1.00
15452;DHT22;7827;53.594;9.938;2023-06-14T00:35:27;15.80;99.90
15452;DHT22;7827;53.594;9.938;2023-06-14T00:37:56;15.90;1.00
15452;DHT22;7827;53.594;9.938;2023-06-14T00:40:26;15.80;1.00
15452;DHT22;7827;53.594;9.938;2023-06-14T00:42:54;15.80;1.00
15452;DHT22;7827;53.594;9.938;2023-06-14T00:45:23;15.70;1.00
15452;DHT22;7827;53.594;9.938;2023-06-14T00:47:51;15.70;88.30
15452;DHT22;7827;53.594;9.938;2023-06-14T00:50:22;15.70;99.90
15452;DHT22;7827;53.594;9.938;2023-06-14T00:52:52;15.70;99.90
15452;DHT22;7827;53.594;9.938;2023-06-14T00:55:21;15.80;1.00
15452;DHT22;7827;53.594;9.938;2023-06-14T00:57:49;15.70;2.70
15452;DHT22;7827;53.594;9.938;2023-06-14T01:00:18;15.70;88.30
15452;DHT22;7827;53.594;9.938;2023-06-14T01:02:47;15.80;1.00
15452;DHT22;7827;53.594;9.938;2023-06-14T01:05:17;15.70;1.00
15452;DHT22;7827;53.594;9.938;2023-06-14T01:07:58;15.70;99.90
15452;DHT22;7827;53.594;9.938;2023-06-14T01:10:44;15.70;1.00
15452;DHT22;7827;53.594;9.938;2023-06-14T01:13:21;15.60;1.00
15452;DHT22;7827;53.594;9.938;2023-06-14T01:15:57;15.50;1.00
15452;DHT22;7827;53.594;9.938;2023-06-14T01:18:28;15.50;1.00
15452;DHT22;7827;53.594;9.938;2023-06-14T01:20:57;15.40;99.90
15452;DHT22;7827;53.594;9.938;2023-06-14T01:23:27;15.40;97.70
15452;DHT22;7827;53.594;9.938;2023-06-14T01:25:59;15.40;1.00
15452;DHT22;7827;53.594;9.938;2023-06-14T01:28:31;15.40;23.20
15452;DHT22;7827;53.594;9.938;2023-06-14T01:31:02;15.40;99.90
15452;DHT22;7827;53.594;9.938;2023-06-14T01:33:33;15.30;1.00
15452;DHT22;7827;53.594;9.938;2023-06-14T01:36:05;15.20;99.90
15452;DHT22;7827;53.594;9.938;2023-06-14T01:38:37;15.20;99.90
15452;DHT22;7827;53.594;9.938;2023-06-14T01:41:07;15.30;99.90
15452;DHT22;7827;53.594;9.938;2023-06-14T01:43:36;15.20;99.90
15452;DHT22;7827;53.594;9.938;2023-06-14T01:46:06;15.20;1.00
15452;DHT22;7827;53.594;9.938;2023-06-14T01:48:36;15.10;1.00
15452;DHT22;7827;53.594;9.938;2023-06-14T01:51:05;15.20;1.00
15452;DHT22;7827;53.594;9.938;2023-06-14T01:53:33;15.20;1.00
15452;DHT22;7827;53.594;9.938;2023-06-14T01:56:03;15.20;99.90
15452;DHT22;7827;53.594;9.938;2023-06-14T01:58:32;15.20;99.90
15452;DHT22;7827;53.594;9.938;2023-06-14T02:01:00;15.20;99.90
15452;DHT22;7827;53.594;9.938;2023-06-14T02:03:29;15.10;1.00
15452;DHT22;7827;53.594;9.938;2023-06-14T02:05:57;15.10;99.90
15452;DHT22;7827;53.594;9.938;2023-06-14T02:08:26;15.10;62.50
15452;DHT22;7827;53.594;9.938;2023-06-14T02:10:55;15.10;99.90
15452;DHT22;7827;53.594;9.938;2023-06-14T02:13:24;15.00;99.90
15452;DHT22;7827;53.594;9.938;2023-06-14T02:15:53;15.00;1.00
15452;DHT22;7827;53.594;9.938;2023-06-14T02:18:22;15.00;99.90
15452;DHT22;7827;53.594;9.938;2023-06-14T02:20:50;15.00;1.00
15452;DHT22;7827;53.594;9.938;2023-06-14T02:23:19;15.10;99.90
15452;DHT22;7827;53.594;9.938;2023-06-14T02:25:47;15.10;99.90
15452;DHT22;7827;53.594;9.938;2023-06-14T02:28:16;15.20;99.90
15452;DHT22;7827;53.594;9.938;2023-06-14T02:30:45;15.20;1.00
15452;DHT22;7827;53.594;9.938;2023-06-14T02:33:14;15.20;99.90
15452;DHT22;7827;53.594;9.938;2023-06-14T02:35:42;15.20;99.90
15452;DHT22;7827;53.594;9.938;2023-06-14T02:38:11;15.10;99.90
15452;DHT22;7827;53.594;9.938;2023-06-14T02:40:40;15.10;99.90
15452;DHT22;7827;53.594;9.938;2023-06-14T02:43:09;15.10;99.90
15452;DHT22;7827;53.594;9.938;2023-06-14T02:45:38;15.00;99.90
15452;DHT22;7827;53.594;9.938;2023-06-14T02:48:08;15.00;99.90
15452;DHT22;7827;53.594;9.938;2023-06-14T02:50:39;14.90;1.00
15452;DHT22;7827;53.594;9.938;2023-06-14T02:53:08;14.90;1.00
15452;DHT22;7827;53.594;9.938;2023-06-14T02:55:36;14.80;99.90
15452;DHT22;7827;53.594;9.938;2023-06-14T02:58:07;14.80;1.00
15452;DHT22;7827;53.594;9.938;2023-06-14T03:00:35;14.70;1.00
15452;DHT22;7827;53.594;9.938;2023-06-14T03:03:05;14.70;99.90
15452;DHT22;7827;53.594;9.938;2023-06-14T03:05:44;14.70;99.90
15452;DHT22;7827;53.594;9.938;2023-06-14T03:08:19;14.70;99.90
15452;DHT22;7827;53.594;9.938;2023-06-14T03:10:51;14.70;99.90
15452;DHT22;7827;53.594;9.938;2023-06-14T03:13:19;14.70;1.00
15452;DHT22;7827;53.594;9.938;2023-06-14T03:15:50;14.70;1.00
15452;DHT22;7827;53.594;9.938;2023-06-14T03:18:20;14.60;1.00
15452;DHT22;7827;53.594;9.938;2023-06-14T03:20:55;14.60;99.90
15452;DHT22;7827;53.594;9.938;2023-06-14T03:23:26;14.60;1.00
15452;DHT22;7827;53.594;9.938;2023-06-14T03:25:54;14.60;1.00
15452;DHT22;7827;53.594;9.938;2023-06-14T03:28:24;14.50;1.00
15452;DHT22;7827;53.594;9.938;2023-06-14T03:30:54;14.60;1.00
15452;DHT22;7827;53.594;9.938;2023-06-14T03:33:23;14.60;99.90
15452;DHT22;7827;53.594;9.938;2023-06-14T03:35:52;14.60;99.90
15452;DHT22;7827;53.594;9.938;2023-06-14T03:38:22;14.60;99.90
15452;DHT22;7827;53.594;9.938;2023-06-14T03:40:51;14.60;99.90
15452;DHT22;7827;53.594;9.938;2023-06-14T03:43:19;14.60;1.00
15452;DHT22;7827;53.594;9.938;2023-06-14T03:45:48;14.70;1.00
15452;DHT22;7827;53.594;9.938;2023-06-14T03:48:17;14.70;2.50
15452;DHT22;7827;53.594;9.938;2023-06-14T03:50:46;14.80;1.00
15452;DHT22;7827;53.594;9.938;2023-06-14T03:53:14;14.80;1.00
15452;DHT22;7827;53.594;9.938;2023-06-14T03:55:49;14.90;99.90
15452;DHT22;7827;53.594;9.938;2023-06-14T03:58:41;15.30;99.90
15452;DHT22;7827;53.594;9.938;2023-06-14T04:01:10;15.80;1.00
15452;DHT22;7827;53.594;9.938;2023-06-14T04:03:39;16.30;99.90
15452;DHT22;7827;53.594;9.938;2023-06-14T04:06:08;16.70;99.90
15452;DHT22;7827;53.594;9.938;2023-06-14T04:08:37;17.20;1.00
15452;DHT22;7827;53.594;9.938;2023-06-14T04:11:08;17.50;1.00
15452;DHT22;7827;53.594;9.938;2023-06-14T04:13:36;18.00;1.00
15452;DHT22;7827;53.594;9.938;2023-06-14T04:16:06;18.30;21.40
15452;DHT22;7827;53.594;9.938;2023-06-14T04:18:35;18.50;1.00
15452;DHT22;7827;53.594;9.938;2023-06-14T04:21:04;18.70;99.90
15452;DHT22;7827;53.594;9.938;2023-06-14T04:23:33;18.90;99.90
15452;DHT22;7827;53.594;9.938;2023-06-14T04:26:02;19.00;99.90
15452;DHT22;7827;53.594;9.938;2023-06-14T04:28:31;19.20;99.90
15452;DHT22;7827;53.594;9.938;2023-06-14T04:31:04;19.40;1.00
15452;DHT22;7827;53.594;9.938;2023-06-14T04:33:35;19.40;1.00
15452;DHT22;7827;53.594;9.938;2023-06-14T04:36:14;19.10;1.00
15452;DHT22;7827;53.594;9.938;2023-06-14T04:38:46;19.10;99.90
15452;DHT22;7827;53.594;9.938;2023-06-14T04:41:16;19.10;1.00
15452;DHT22;7827;53.594;9.938;2023-06-14T04:43:47;19.20;1.00
15452;DHT22;7827;53.594;9.938;2023-06-14T04:46:17;19.30;1.00
15452;DHT22;7827;53.594;9.938;2023-06-14T04:48:45;19.20;1.00
15452;DHT22;7827;53.594;9.938;2023-06-14T04:51:16;19.00;99.90
15452;DHT22;7827;53.594;9.938;2023-06-14T04:53:47;18.90;99.90
15452;DHT22;7827;53.594;9.938;2023-06-14T04:56:17;18.80;99.90
15452;DHT22;7827;53.594;9.938;2023-06-14T04:58:47;18.60;99.90
15452;DHT22;7827;53.594;9.938;2023-06-14T05:01:15;18.60;1.00
15452;DHT22;7827;53.594;9.938;2023-06-14T05:03:43;18.70;1.00
15452;DHT22;7827;53.594;9.938;2023-06-14T05:06:15;18.70;1.00
15452;DHT22;7827;53.594;9.938;2023-06-14T05:08:44;18.90;99.90
15452;DHT22;7827;53.594;9.938;2023-06-14T05:11:13;18.70;1.00
15452;DHT22;7827;53.594;9.938;2023-06-14T05:13:47;18.70;99.90
15452;DHT22;7827;53.594;9.938;2023-06-14T05:16:17;18.50;1.00
15452;DHT22;7827;53.594;9.938;2023-06-14T05:18:46;18.70;1.00
15452;DHT22;7827;53.594;9.938;2023-06-14T05:21:15;18.90;99.90
15452;DHT22;7827;53.594;9.938;2023-06-14T05:23:44;18.70;1.00
15452;DHT22;7827;53.594;9.938;2023-06-14T05:26:12;18.70;1.00
15452;DHT22;7827;53.594;9.938;2023-06-14T05:28:42;18.80;99.90
15452;DHT22;7827;53.594;9.938;2023-06-14T05:31:11;18.80;1.00
15452;DHT22;7827;53.594;9.938;2023-06-14T05:33:40;18.90;99.90
15452;DHT22;7827;53.594;9.938;2023-06-14T05:36:08;18.90;99.90
15452;DHT22;7827;53.594;9.938;2023-06-14T05:38:37;18.80;1.00
15452;DHT22;7827;53.594;9.938;2023-06-14T05:41:05;18.80;1.00
15452;DHT22;7827;53.594;9.938;2023-06-14T05:43:34;18.80;99.90
15452;DHT22;7827;53.594;9.938;2023-06-14T05:46:02;18.90;96.10
15452;DHT22;7827;53.594;9.938;2023-06-14T05:48:32;18.80;1.00
15452;DHT22;7827;53.594;9.938;2023-06-14T05:51:00;18.90;1.00
15452;DHT22;7827;53.594;9.938;2023-06-14T05:53:28;18.90;1.00
15452;DHT22;7827;53.594;9.938;2023-06-14T05:55:57;18.80;1.00
15452;DHT22;7827;53.594;9.938;2023-06-14T05:58:25;18.90;99.90
15452;DHT22;7827;53.594;9.938;2023-06-14T06:00:54;18.90;1.00
15452;DHT22;7827;53.594;9.938;2023-06-14T06:03:22;19.10;99.90
15452;DHT22;7827;53.594;9.938;2023-06-14T06:05:52;19.20;1.00
15452;DHT22;7827;53.594;9.938;2023-06-14T06:08:21;19.20;99.90
15452;DHT22;7827;53.594;9.938;2023-06-14T06:10:49;19.20;1.00
15452;DHT22;7827;53.594;9.938;2023-06-14T06:13:18;19.20;1.00
15452;DHT22;7827;53.594;9.938;2023-06-14T06:15:47;19.30;1.00
15452;DHT22;7827;53.594;9.938;2023-06-14T06:18:15;19.40;1.00
15452;DHT22;7827;53.594;9.938;2023-06-14T06:20:44;19.50;99.90
15452;DHT22;7827;53.594;9.938;2023-06-14T06:23:15;19.70;99.90
15452;DHT22;7827;53.594;9.938;2023-06-14T06:25:44;20.00;99.90
15452;DHT22;7827;53.594;9.938;2023-06-14T06:28:12;20.30;99.90
15452;DHT22;7827;53.594;9.938;2023-06-14T06:30:40;20.50;99.90
15452;DHT22;7827;53.594;9.938;2023-06-14T06:33:09;20.60;1.00
15452;DHT22;7827;53.594;9.938;2023-06-14T06:35:37;20.60;1.00
15452;DHT22;7827;53.594;9.938;2023-06-14T06:38:06;20.70;1.00
15452;DHT22;7827;53.594;9.938;2023-06-14T06:40:36;20.70;99.90
15452;DHT22;7827;53.594;9.938;2023-06-14T06:43:05;20.60;99.90
15452;DHT22;7827;53.594;9.938;2023-06-14T06:45:41;20.80;1.00
15452;DHT22;7827;53.594;9.938;2023-06-14T06:48:09;20.90;99.90
15452;DHT22;7827;53.594;9.938;2023-06-14T06:50:38;21.00;99.90
15452;DHT22;7827;53.594;9.938;2023-06-14T06:53:06;21.10;56.90
15452;DHT22;7827;53.594;9.938;2023-06-14T06:55:34;21.30;99.90
15452;DHT22;7827;53.594;9.938;2023-06-14T06:58:04;21.40;99.90
15452;DHT22;7827;53.594;9.938;2023-06-14T07:00:33;21.50;4.50
15452;DHT22;7827;53.594;9.938;2023-06-14T07:03:01;21.60;1.00
15452;DHT22;7827;53.594;9.938;2023-06-14T07:05:31;21.50;99.90
15452;DHT22;7827;53.594;9.938;2023-06-14T07:07:59;21.60;1.00
15452;DHT22;7827;53.594;9.938;2023-06-14T07:10:28;21.20;1.00
15452;DHT22;7827;53.594;9.938;2023-06-14T07:12:56;21.00;1.00
15452;DHT22;7827;53.594;9.938;2023-06-14T07:15:26;21.00;58.00
15452;DHT22;7827;53.594;9.938;2023-06-14T07:17:54;21.00;13.20
15452;DHT22;7827;53.594;9.938;2023-06-14T07:20:26;21.20;1.00
15452;DHT22;7827;53.594;9.938;2023-06-14T07:22:55;21.10;1.00
15452;DHT22;7827;53.594;9.938;2023-06-14T07:25:23;21.00;1.00
15452;DHT22;7827;53.594;9.938;2023-06-14T07:27:52;21.10;1.00
15452;DHT22;7827;53.594;9.938;2023-06-14T07:30:20;21.20;1.00
15452;DHT22;7827;53.594;9.938;2023-06-14T07:32:54;21.50;1.00
15452;DHT22;7827;53.594;9.938;2023-06-14T07:35:22;21.50;1.00
15452;DHT22;7827;53.594;9.938;2023-06-14T07:37:51;21.70;1.00
15452;DHT22;7827;53.594;9.938;2023-06-14T07:40:19;21.60;1.00
15452;DHT22;7827;53.594;9.938;2023-06-14T07:42:48;21.60;1.00
15452;DHT22;7827;53.594;9.938;2023-06-14T07:45:17;21.70;1.00
15452;DHT22;7827;53.594;9.938;2023-06-14T07:47:46;21.60;99.90
15452;DHT22;7827;53.594;9.938;2023-06-14T07:50:16;21.60;1.00
15452;DHT22;7827;53.594;9.938;2023-06-14T07:52:45;21.70;1.00
15452;DHT22;7827;53.594;9.938;2023-06-14T07:55:15;21.60;99.90
15452;DHT22;7827;53.594;9.938;2023-06-14T07:57:45;21.80;99.90
15452;DHT22;7827;53.594;9.938;2023-06-14T08:00:15;22.00;99.90
15452;DHT22;7827;53.594;9.938;2023-06-14T08:02:45;22.00;99.90
15452;DHT22;7827;53.594;9.938;2023-06-14T08:05:13;21.90;99.90
15452;DHT22;7827;53.594;9.938;2023-06-14T08:07:44;22.00;99.90
15452;DHT22;7827;53.594;9.938;2023-06-14T08:10:12;22.10;99.90
15452;DHT22;7827;53.594;9.938;2023-06-14T08:12:41;22.10;99.90
15452;DHT22;7827;53.594;9.938;2023-06-14T08:15:10;22.20;99.90
15452;DHT22;7827;53.594;9.938;2023-06-14T08:17:42;22.30;99.90
15452;DHT22;7827;53.594;9.938;2023-06-14T08:20:12;22.40;99.90
15452;DHT22;7827;53.594;9.938;2023-06-14T08:22:45;22.20;99.90
15452;DHT22;7827;53.594;9.938;2023-06-14T08:25:14;22.30;99.90
15452;DHT22;7827;53.594;9.938;2023-06-14T08:28:01;22.40;99.90
15452;DHT22;7827;53.594;9.938;2023-06-14T08:30:48;22.50;99.90
15452;DHT22;7827;53.594;9.938;2023-06-14T08:33:35;22.50;99.90
15452;DHT22;7827;53.594;9.938;2023-06-14T08:36:22;22.60;99.90
15452;DHT22;7827;53.594;9.938;2023-06-14T08:39:10;22.40;73.10
15452;DHT22;7827;53.594;9.938;2023-06-14T08:41:57;22.40;97.60
15452;DHT22;7827;53.594;9.938;2023-06-14T08:44:44;22.50;99.90
15452;DHT22;7827;53.594;9.938;2023-06-14T08:47:32;22.50;99.90
15452;DHT22;7827;53.594;9.938;2023-06-14T08:50:27;22.60;99.90
15452;DHT22;7827;53.594;9.938;2023-06-14T08:53:18;22.70;99.90
15452;DHT22;7827;53.594;9.938;2023-06-14T08:56:07;22.70;99.90
15452;DHT22;7827;53.594;9.938;2023-06-14T08:58:58;22.70;79.40
15452;DHT22;7827;53.594;9.938;2023-06-14T09:01:48;22.60;1.00
15452;DHT22;7827;53.594;9.938;2023-06-14T09:04:56;22.50;99.90
15452;DHT22;7827;53.594;9.938;2023-06-14T09:07:46;22.30;99.90
15452;DHT22;7827;53.594;9.938;2023-06-14T09:10:34;22.50;99.90
15452;DHT22;7827;53.594;9.938;2023-06-14T09:13:26;22.50;99.90
15452;DHT22;7827;53.594;9.938;2023-06-14T09:16:16;22.80;99.90
15452;DHT22;7827;53.594;9.938;2023-06-14T09:18:46;23.10;99.90
15452;DHT22;7827;53.594;9.938;2023-06-14T09:21:16;23.10;1.00
15452;DHT22;7827;53.594;9.938;2023-06-14T09:23:46;22.90;53.10
15452;DHT22;7827;53.594;9.938;2023-06-14T09:26:17;22.90;76.00
15452;DHT22;7827;53.594;9.938;2023-06-14T09:28:49;23.10;36.50
15452;DHT22;7827;53.594;9.938;2023-06-14T09:31:19;23.10;1.00
15452;DHT22;7827;53.594;9.938;2023-06-14T09:33:49;23.20;79.60
15452;DHT22;7827;53.594;9.938;2023-06-14T09:36:21;23.50;99.90
15452;DHT22;7827;53.594;9.938;2023-06-14T09:38:55;23.40;1.00
15452;DHT22;7827;53.594;9.938;2023-06-14T09:41:31;23.20;47.10
15452;DHT22;7827;53.594;9.938;2023-06-14T09:44:03;23.00;85.30
15452;DHT22;7827;53.594;9.938;2023-06-14T09:46:37;22.80;18.20
15452;DHT22;7827;53.594;9.938;2023-06-14T09:49:06;22.60;42.50
15452;DHT22;7827;53.594;9.938;2023-06-14T09:51:41;22.70;1.00
15452;DHT22;7827;53.594;9.938;2023-06-14T09:54:14;22.80;1.00
15452;DHT22;7827;53.594;9.938;2023-06-14T09:56:45;22.80;1.00
15452;DHT22;7827;53.594;9.938;2023-06-14T09:59:19;22.90;1.00
15452;DHT22;7827;53.594;9.938;2023-06-14T10:01:57;22.90;3.80
15452;DHT22;7827;53.594;9.938;2023-06-14T10:04:27;23.20;1.00
15452;DHT22;7827;53.594;9.938;2023-06-14T10:06:58;23.40;1.00
15452;DHT22;7827;53.594;9.938;2023-06-14T10:09:30;23.60;1.00
15452;DHT22;7827;53.594;9.938;2023-06-14T10:11:59;23.60;1.00
15452;DHT22;7827;53.594;9.938;2023-06-14T10:14:31;23.50;1.00
15452;DHT22;7827;53.594;9.938;2023-06-14T10:17:04;23.50;1.00
15452;DHT22;7827;53.594;9.938;2023-06-14T10:19:42;23.40;1.00
15452;DHT22;7827;53.594;9.938;2023-06-14T10:22:18;23.50;1.00
15452;DHT22;7827;53.594;9.938;2023-06-14T10:24:51;23.70;1.00
15452;DHT22;7827;53.594;9.938;2023-06-14T10:27:20;23.90;1.00
15452;DHT22;7827;53.594;9.938;2023-06-14T10:30:07;24.00;1.00
15452;DHT22;7827;53.594;9.938;2023-06-14T10:33:06;24.20;1.00
15452;DHT22;7827;53.594;9.938;2023-06-14T10:35:36;24.20;1.00
15452;DHT22;7827;53.594;9.938;2023-06-14T10:38:09;24.10;1.00
15452;DHT22;7827;53.594;9.938;2023-06-14T10:40:39;24.20;1.00
15452;DHT22;7827;53.594;9.938;2023-06-14T10:43:21;24.40;1.00
15452;DHT22;7827;53.594;9.938;2023-06-14T10:46:13;24.30;1.00
15452;DHT22;7827;53.594;9.938;2023-06-14T10:48:45;24.10;1.00
15452;DHT22;7827;53.594;9.938;2023-06-14T10:51:18;23.70;1.00
15452;DHT22;7827;53.594;9.938;2023-06-14T10:53:50;23.30;1.00
15452;DHT22;7827;53.594;9.938;2023-06-14T10:56:29;23.00;1.00
15452;DHT22;7827;53.594;9.938;2023-06-14T10:58:58;23.00;1.00
15452;DHT22;7827;53.594;9.938;2023-06-14T11:01:35;23.20;1.00
15452;DHT22;7827;53.594;9.938;2023-06-14T11:04:09;23.50;1.00
15452;DHT22;7827;53.594;9.938;2023-06-14T11:06:48;23.90;1.00
15452;DHT22;7827;53.594;9.938;2023-06-14T11:09:51;23.90;1.00
15452;DHT22;7827;53.594;9.938;2023-06-14T11:12:37;23.70;1.00
15452;DHT22;7827;53.594;9.938;2023-06-14T11:15:09;23.50;1.00
15452;DHT22;7827;53.594;9.938;2023-06-14T11:17:37;23.80;1.00
15452;DHT22;7827;53.594;9.938;2023-06-14T11:20:11;24.10;1.00
15452;DHT22;7827;53.594;9.938;2023-06-14T11:22:47;24.40;1.00
15452;DHT22;7827;53.594;9.938;2023-06-14T11:25:15;24.70;1.00
15452;DHT22;7827;53.594;9.938;2023-06-14T11:27:44;24.90;1.00
15452;DHT22;7827;53.594;9.938;2023-06-14T11:30:13;25.00;1.00
15452;DHT22;7827;53.594;9.938;2023-06-14T11:32:41;24.90;1.00
15452;DHT22;7827;53.594;9.938;2023-06-14T11:35:11;24.80;1.00
15452;DHT22;7827;53.594;9.938;2023-06-14T11:37:40;24.70;1.00
15452;DHT22;7827;53.594;9.938;2023-06-14T11:40:10;24.90;1.00
15452;DHT22;7827;53.594;9.938;2023-06-14T11:42:41;24.90;1.00
15452;DHT22;7827;53.594;9.938;2023-06-14T11:45:10;24.50;1.00
15452;DHT22;7827;53.594;9.938;2023-06-14T11:47:39;24.30;1.00
15452;DHT22;7827;53.594;9.938;2023-06-14T11:50:11;24.00;1.00
15452;DHT22;7827;53.594;9.938;2023-06-14T11:52:39;23.90;1.00
15452;DHT22;7827;53.594;9.938;2023-06-14T11:55:08;24.00;1.00
15452;DHT22;7827;53.594;9.938;2023-06-14T11:57:37;24.10;1.00
15452;DHT22;7827;53.594;9.938;2023-06-14T12:00:07;24.50;1.00
15452;DHT22;7827;53.594;9.938;2023-06-14T12:02:39;24.50;1.00
15452;DHT22;7827;53.594;9.938;2023-06-14T12:05:08;24.40;1.00
15452;DHT22;7827;53.594;9.938;2023-06-14T12:07:39;24.50;1.00
15452;DHT22;7827;53.594;9.938;2023-06-14T12:10:08;24.40;1.00
15452;DHT22;7827;53.594;9.938;2023-06-14T12:12:39;24.50;1.00
15452;DHT22;7827;53.594;9.938;2023-06-14T12:15:10;24.70;1.00
15452;DHT22;7827;53.594;9.938;2023-06-14T12:17:39;24.50;1.00
15452;DHT22;7827;53.594;9.938;2023-06-14T12:20:13;24.20;1.00
15452;DHT22;7827;53.594;9.938;2023-06-14T12:22:51;23.90;1.00
15452;DHT22;7827;53.594;9.938;2023-06-14T12:25:25;23.80;1.00
15452;DHT22;7827;53.594;9.938;2023-06-14T12:27:55;24.00;1.00
15452;DHT22;7827;53.594;9.938;2023-06-14T12:30:23;24.20;1.00
15452;DHT22;7827;53.594;9.938;2023-06-14T12:32:51;24.50;1.00
15452;DHT22;7827;53.594;9.938;2023-06-14T12:35:21;24.40;1.00
15452;DHT22;7827;53.594;9.938;2023-06-14T12:37:50;23.90;1.00
15452;DHT22;7827;53.594;9.938;2023-06-14T12:40:22;23.80;1.00
15452;DHT22;7827;53.594;9.938;2023-06-14T12:42:50;23.90;1.00
15452;DHT22;7827;53.594;9.938;2023-06-14T12:45:19;24.00;1.00
15452;DHT22;7827;53.594;9.938;2023-06-14T12:47:47;24.00;1.00
15452;DHT22;7827;53.594;9.938;2023-06-14T12:50:15;24.10;1.00
15452;DHT22;7827;53.594;9.938;2023-06-14T12:52:45;24.20;1.00
15452;DHT22;7827;53.594;9.938;2023-06-14T12:55:14;24.30;1.00
15452;DHT22;7827;53.594;9.938;2023-06-14T12:57:42;24.10;1.00
15452;DHT22;7827;53.594;9.938;2023-06-14T13:00:12;23.90;1.00
15452;DHT22;7827;53.594;9.938;2023-06-14T13:02:41;23.80;1.00
15452;DHT22;7827;53.594;9.938;2023-06-14T13:05:10;23.90;1.00
15452;DHT22;7827;53.594;9.938;2023-06-14T13:07:38;24.10;1.00
15452;DHT22;7827;53.594;9.938;2023-06-14T13:10:08;24.40;1.00
15452;DHT22;7827;53.594;9.938;2023-06-14T13:12:37;24.50;1.00
15452;DHT22;7827;53.594;9.938;2023-06-14T13:15:06;24.40;1.00
15452;DHT22;7827;53.594;9.938;2023-06-14T13:17:35;24.50;1.00
15452;DHT22;7827;53.594;9.938;2023-06-14T13:20:06;24.50;1.00
15452;DHT22;7827;53.594;9.938;2023-06-14T13:22:35;24.40;1.00
15452;DHT22;7827;53.594;9.938;2023-06-14T13:25:04;24.40;1.00
15452;DHT22;7827;53.594;9.938;2023-06-14T13:27:34;24.50;1.00
15452;DHT22;7827;53.594;9.938;2023-06-14T13:30:03;24.60;1.00
15452;DHT22;7827;53.594;9.938;2023-06-14T13:32:33;24.60;1.00
15452;DHT22;7827;53.594;9.938;2023-06-14T13:35:02;24.70;1.00
15452;DHT22;7827;53.594;9.938;2023-06-14T13:37:31;24.80;1.00
15452;DHT22;7827;53.594;9.938;2023-06-14T13:39:59;24.90;1.00
15452;DHT22;7827;53.594;9.938;2023-06-14T13:42:28;24.90;1.00
15452;DHT22;7827;53.594;9.938;2023-06-14T13:44:59;25.00;1.00
15452;DHT22;7827;53.594;9.938;2023-06-14T13:47:45;25.10;1.00
15452;DHT22;7827;53.594;9.938;2023-06-14T13:50:33;25.00;1.00
15452;DHT22;7827;53.594;9.938;2023-06-14T13:53:19;24.80;1.00
15452;DHT22;7827;53.594;9.938;2023-06-14T13:56:04;25.00;1.00
15452;DHT22;7827;53.594;9.938;2023-06-14T13:58:50;24.90;1.00
15452;DHT22;7827;53.594;9.938;2023-06-14T14:01:38;25.00;99.90
15452;DHT22;7827;53.594;9.938;2023-06-14T14:04:24;25.10;99.90
15452;DHT22;7827;53.594;9.938;2023-06-14T14:07:10;25.30;99.90
15452;DHT22;7827;53.594;9.938;2023-06-14T14:09:56;25.30;99.90
15452;DHT22;7827;53.594;9.938;2023-06-14T14:12:42;25.30;99.90
15452;DHT22;7827;53.594;9.938;2023-06-14T14:15:29;25.20;99.90
15452;DHT22;7827;53.594;9.938;2023-06-14T14:18:17;25.00;99.90
15452;DHT22;7827;53.594;9.938;2023-06-14T14:21:04;25.10;99.90
15452;DHT22;7827;53.594;9.938;2023-06-14T14:23:51;25.30;99.90
15452;DHT22;7827;53.594;9.938;2023-06-14T14:26:37;25.30;99.90
15452;DHT22;7827;53.594;9.938;2023-06-14T14:29:23;24.90;99.90
15452;DHT22;7827;53.594;9.938;2023-06-14T14:31:53;24.60;99.90
15452;DHT22;7827;53.594;9.938;2023-06-14T14:34:24;24.50;99.90
15452;DHT22;7827;53.594;9.938;2023-06-14T14:36:53;24.30;99.90
15452;DHT22;7827;53.594;9.938;2023-06-14T14:39:21;24.40;99.90
15452;DHT22;7827;53.594;9.938;2023-06-14T14:41:50;24.70;99.90
15452;DHT22;7827;53.594;9.938;2023-06-14T14:44:18;24.90;99.90
15452;DHT22;7827;53.594;9.938;2023-06-14T14:46:47;25.10;99.90
15452;DHT22;7827;53.594;9.938;2023-06-14T14:49:15;25.10;99.90
15452;DHT22;7827;53.594;9.938;2023-06-14T14:51:45;25.30;99.90
15452;DHT22;7827;53.594;9.938;2023-06-14T14:54:13;25.30;99.90
15452;DHT22;7827;53.594;9.938;2023-06-14T14:56:41;25.00;99.90
15452;DHT22;7827;53.594;9.938;2023-06-14T14:59:10;24.90;99.90
15452;DHT22;7827;53.594;9.938;2023-06-14T15:01:39;24.80;99.90
15452;DHT22;7827;53.594;9.938;2023-06-14T15:04:08;24.90;99.90
15452;DHT22;7827;53.594;9.938;2023-06-14T15:06:37;25.20;99.90
15452;DHT22;7827;53.594;9.938;2023-06-14T15:09:07;25.50;99.90
15452;DHT22;7827;53.594;9.938;2023-06-14T15:11:36;25.40;99.90
15452;DHT22;7827;53.594;9.938;2023-06-14T15:14:04;25.00;99.90
15452;DHT22;7827;53.594;9.938;2023-06-14T15:16:33;24.90;99.90
15452;DHT22;7827;53.594;9.938;2023-06-14T15:19:01;25.00;99.90
15452;DHT22;7827;53.594;9.938;2023-06-14T15:21:29;24.90;99.90
15452;DHT22;7827;53.594;9.938;2023-06-14T15:23:59;25.00;99.90
15452;DHT22;7827;53.594;9.938;2023-06-14T15:26:29;25.10;99.90
15452;DHT22;7827;53.594;9.938;2023-06-14T15:28:57;25.30;99.90
15452;DHT22;7827;53.594;9.938;2023-06-14T15:31:26;25.60;99.90
15452;DHT22;7827;53.594;9.938;2023-06-14T15:33:55;25.70;99.90
15452;DHT22;7827;53.594;9.938;2023-06-14T15:36:24;25.70;99.90
15452;DHT22;7827;53.594;9.938;2023-06-14T15:38:53;25.60;99.90
15452;DHT22;7827;53.594;9.938;2023-06-14T15:41:21;25.70;99.90
15452;DHT22;7827;53.594;9.938;2023-06-14T15:43:51;25.60;99.90
15452;DHT22;7827;53.594;9.938;2023-06-14T15:46:21;25.50;99.90
15452;DHT22;7827;53.594;9.938;2023-06-14T15:48:49;25.50;99.90
15452;DHT22;7827;53.594;9.938;2023-06-14T15:51:18;25.40;99.90
15452;DHT22;7827;53.594;9.938;2023-06-14T15:53:46;25.40;99.90
15452;DHT22;7827;53.594;9.938;2023-06-14T15:56:14;25.70;99.90
15452;DHT22;7827;53.594;9.938;2023-06-14T15:58:43;25.60;99.90
15452;DHT22;7827;53.594;9.938;2023-06-14T16:01:12;25.50;99.90
15452;DHT22;7827;53.594;9.938;2023-06-14T16:03:41;25.50;99.90
15452;DHT22;7827;53.594;9.938;2023-06-14T16:06:09;25.30;99.90
15452;DHT22;7827;53.594;9.938;2023-06-14T16:08:38;25.10;99.90
15452;DHT22;7827;53.594;9.938;2023-06-14T16:11:07;25.10;99.90
15452;DHT22;7827;53.594;9.938;2023-06-14T16:13:36;25.20;99.90
15452;DHT22;7827;53.594;9.938;2023-06-14T16:16:04;25.00;99.90
15452;DHT22;7827;53.594;9.938;2023-06-14T16:18:34;25.00;99.90
15452;DHT22;7827;53.594;9.938;2023-06-14T16:21:02;25.10;99.90
15452;DHT22;7827;53.594;9.938;2023-06-14T16:23:33;25.20;99.90